Flight Track Log - Related Links

Times and Time Zones

All times are in EDT time to prevent confusion due to time zone crossing. See the N233NC flight status page for this flight to view local times or setup timezone preferences in your user account.

Time Position Orientation Groundspeed Altitude Reporting Facility
EDT Latitude Longitude Course Direction KTS MPH feet Rate Location/Type
Wed 06:27:12 PM 48.3381 -103.0539 238° Southwest 119 137 6,200  Level Salt Lake Center
Wed 06:28:12 PM 48.3253 -103.0903 242° Southwest 118 136 6,900 787 Climbing Minneapolis Center
Wed 06:29:14 PM 48.3044 -103.1397 238° Southwest 117 135 7,800 532 Climbing Minneapolis Center
Wed 06:30:16 PM 48.2842 -103.1850 236° Southwest 122 140 8,000 48 Climbing Minneapolis Center
Wed 06:31:18 PM 48.2564 -103.2550 239° Southwest 144 166 7,900 -49 Descending Minneapolis Center
Wed 06:32:00 PM 48.2221 -103.2802 238° Southwest  Level Estimated
Wed 06:32:19 PM 48.2317 -103.3142 238° Southwest 157 181 7,900  Level Minneapolis Center
Wed 06:33:21 PM 48.2069 -103.3714 237° Southwest 162 186 7,900 48 Level Minneapolis Center
Wed 06:34:25 PM 48.1861 -103.4236 239° Southwest 160 184 8,000  Climbing Salt Lake Center
Wed 06:35:26 PM 48.1644 -103.4756 238° Southwest 155 178 7,900 -49 Descending Salt Lake Center
Wed 06:36:28 PM 48.1400 -103.5319 237° Southwest 152 175 7,900 48 Level Salt Lake Center
Wed 06:37:30 PM 48.1144 -103.5917 237° Southwest 152 175 8,000  Climbing Salt Lake Center
Wed 06:38:31 PM 48.0925 -103.6439 238° Southwest 151 174 7,900 -49 Descending Salt Lake Center
Wed 06:39:33 PM 48.0706 -103.6950 237° Southwest 149 171 7,900  Level Salt Lake Center
Wed 06:40:35 PM 48.0483 -103.7478 238° Southwest 149 171 7,900  Level Salt Lake Center
Wed 06:41:37 PM 48.0239 -103.8039 237° Southwest 155 178 7,900  Level Salt Lake Center
Wed 06:42:38 PM 48.0006 -103.8586 238° Southwest 157 181 7,900  Level Salt Lake Center
Wed 06:43:40 PM 47.9736 -103.9217 237° Southwest 154 177 7,900  Level Salt Lake Center
Wed 06:44:42 PM 47.9506 -103.9744 237° Southwest 153 176 7,900  Level Salt Lake Center
Wed 06:45:43 PM 47.9283 -104.0275 238° Southwest 153 176 7,900  Level Salt Lake Center
Wed 06:46:45 PM 47.9050 -104.0811 237° Southwest 154 177 7,900  Level Salt Lake Center
Wed 06:47:47 PM 47.8819 -104.1328 236° Southwest 152 175 7,900  Level Salt Lake Center
Wed 06:48:48 PM 47.8583 -104.1869 237° Southwest 155 178 7,900  Level Salt Lake Center
Wed 06:49:50 PM 47.8358 -104.2408 238° Southwest 155 178 7,900  Level Salt Lake Center
Wed 06:50:52 PM 47.8081 -104.3028 236° Southwest 153 176 7,900  Level Salt Lake Center
Wed 06:51:53 PM 47.7850 -104.3558 237° Southwest 153 176 7,900  Level Salt Lake Center
Wed 06:52:55 PM 47.7608 -104.4106 237° Southwest 155 178 7,900  Level Salt Lake Center
Wed 06:53:57 PM 47.7364 -104.4639 236° Southwest 157 181 7,900  Level Salt Lake Center
Wed 06:54:58 PM 47.7133 -104.5183 238° Southwest 157 181 7,900  Level Salt Lake Center
Wed 06:56:00 PM 47.6892 -104.5733 237° Southwest 158 182 7,900  Level Salt Lake Center
Wed 06:57:02 PM 47.6606 -104.6383 237° Southwest 158 182 7,900  Level Salt Lake Center
Wed 06:58:03 PM 47.6375 -104.6908 237° Southwest 155 178 7,900  Level Salt Lake Center
Wed 06:59:05 PM 47.6128 -104.7453 236° Southwest 156 180 7,900  Level Salt Lake Center
Wed 07:00:06 PM 47.5878 -104.8006 236° Southwest 159 183 7,900  Level Salt Lake Center
Wed 07:01:08 PM 47.5639 -104.8542 237° Southwest 158 182 7,900  Level Salt Lake Center
Wed 07:02:10 PM 47.5406 -104.9072 237° Southwest 157 181 7,900  Level Salt Lake Center
Wed 07:03:11 PM 47.5181 -104.9578 237° Southwest 153 176 7,900 49 Level Salt Lake Center
Wed 07:04:13 PM 47.4947 -105.0092 236° Southwest 151 174 8,000 49 Climbing Salt Lake Center
Wed 07:05:14 PM 47.4653 -105.0758 237° Southwest 155 178 8,000 244 Level Salt Lake Center
Wed 07:06:16 PM 47.4411 -105.1294 236° Southwest 157 181 8,500 484 Climbing Salt Lake Center
Wed 07:07:18 PM 47.4164 -105.1831 236° Southwest 158 182 9,000 439 Climbing Salt Lake Center
Wed 07:08:19 PM 47.3917 -105.2358 235° Southwest 157 181 9,400 390 Climbing Salt Lake Center
Wed 07:09:21 PM 47.3686 -105.2861 236° Southwest 154 177 9,800 244 Climbing Salt Lake Center
Wed 07:10:22 PM 47.3450 -105.3389 237° Southwest 153 176 9,900 49 Climbing Salt Lake Center
Wed 07:11:24 PM 47.3206 -105.3919 236° Southwest 155 178 9,900  Level Salt Lake Center
Wed 07:12:26 PM 47.2919 -105.4547 236° Southwest 155 178 9,900  Level Salt Lake Center
Wed 07:13:27 PM 47.2667 -105.5100 236° Southwest 158 182 9,900  Level Salt Lake Center
Wed 07:14:29 PM 47.2419 -105.5658 237° Southwest 161 185 9,900  Level Salt Lake Center
Wed 07:15:31 PM 47.2183 -105.6181 236° Southwest 159 183 9,900  Level Salt Lake Center
Wed 07:16:32 PM 47.1942 -105.6694 235° Southwest 156 180 9,900  Level Salt Lake Center
Wed 07:17:34 PM 47.1681 -105.7244 235° Southwest 159 183 9,900  Level Salt Lake Center
Wed 07:18:35 PM 47.1428 -105.7792 236° Southwest 161 185 9,900  Level Salt Lake Center
Wed 07:19:37 PM 47.1147 -105.8436 237° Southwest 159 183 9,900  Level Salt Lake Center
Wed 07:20:39 PM 47.0900 -105.8967 236° Southwest 158 182 9,900  Level Salt Lake Center
Wed 07:21:40 PM 47.0661 -105.9489 236° Southwest 157 181 9,900  Level Salt Lake Center
Wed 07:22:42 PM 47.0417 -106.0022 236° Southwest 157 181 9,900  Level Salt Lake Center
Wed 07:23:44 PM 47.0164 -106.0533 234° Southwest 156 180 9,900  Level Salt Lake Center
Wed 07:24:45 PM 46.9928 -106.1064 237° Southwest 156 180 9,900  Level Salt Lake Center
Wed 07:25:47 PM 46.9678 -106.1581 235° Southwest 156 180 9,900  Level Salt Lake Center
Wed 07:26:49 PM 46.9381 -106.2192 235° Southwest 155 178 9,900  Level Salt Lake Center
Wed 07:27:51 PM 46.9142 -106.2725 237° Southwest 156 180 9,900  Level Salt Lake Center
Wed 07:28:52 PM 46.8881 -106.3250 234° Southwest 158 182 9,900  Level Salt Lake Center
Wed 07:29:54 PM 46.8650 -106.3794 238° Southwest 158 182 9,900  Level Salt Lake Center
Wed 07:30:56 PM 46.8389 -106.4378 237° Southwest 158 182 9,900 Level Salt Lake Center
Wed 07:32:00 PM 46.8124 -106.4906 234° Southwest  Level FlightAware Approximate
Wed 07:39:00 PM 46.6382 -106.8363 234° Southwest  Level FlightAware Approximate
Wed 07:40:00 PM 46.6132 -106.8855 234° Southwest  Level FlightAware Approximate
Wed 07:41:00 PM 46.5882 -106.9347 234° Southwest  Level FlightAware Approximate
Wed 07:42:00 PM 46.5632 -106.9838 233° Southwest  Level FlightAware Approximate
Wed 07:43:00 PM 46.5382 -107.0329 233° Southwest  Level FlightAware Approximate
Wed 07:44:00 PM 46.5131 -107.0819 233° Southwest  Level FlightAware Approximate
Wed 07:45:00 PM 46.4880 -107.1309 233° Southwest  Level FlightAware Approximate
Wed 07:46:00 PM 46.4629 -107.1798 233° Southwest  Level FlightAware Approximate
Wed 07:47:00 PM 46.4378 -107.2287 233° Southwest  Level FlightAware Approximate
Wed 07:48:00 PM 46.4127 -107.2775 233° Southwest  Level FlightAware Approximate
Wed 07:48:12 PM 46.3997 -107.3494 235° Southwest 165 190 10,000  Level Salt Lake Center
Wed 07:49:00 PM 46.3875 -107.3263 233° Southwest  Level FlightAware Approximate
Wed 07:49:14 PM 46.3756 -107.4036 237° Southwest 158 182 10,000  Level Salt Lake Center
Wed 07:50:00 PM 46.3626 -107.3753 235° Southwest  Level FlightAware Approximate
Wed 07:50:15 PM 46.3478 -107.4611 235° Southwest 156 180 10,000  Level Salt Lake Center
Wed 07:51:00 PM 46.3387 -107.4254 235° Southwest  Level FlightAware Approximate
Wed 07:51:17 PM 46.3189 -107.5169 233° Southwest 159 183 10,000  Level Salt Lake Center
Wed 07:52:00 PM 46.3149 -107.4755 235° Southwest  Level FlightAware Approximate
Wed 07:52:19 PM 46.2944 -107.5689 236° Southwest 158 182 10,000  Level Salt Lake Center
Wed 07:53:00 PM 46.2910 -107.5256 235° Southwest  Level FlightAware Approximate
Wed 07:53:20 PM 46.2669 -107.6214 233° Southwest 155 178 10,000  Level Salt Lake Center
Wed 07:54:22 PM 46.2414 -107.6736 235° Southwest 159 183 9,900 -293 Descending Salt Lake Center
Wed 07:55:23 PM 46.2144 -107.7303 236° Southwest 169 194 9,400 -537 Descending Salt Lake Center
Wed 07:56:25 PM 46.1839 -107.7911 234° Southwest 174 200 8,800 -484 Descending Salt Lake Center
Wed 07:57:27 PM 46.1572 -107.8453 235° Southwest 169 194 8,400 -390 Descending Salt Lake Center
Wed 07:58:28 PM 46.1272 -107.9064 235° Southwest 172 198 8,000 -390 Descending Salt Lake Center
Wed 07:59:30 PM 46.1014 -107.9581 234° Southwest 162 186 7,600 -629 Descending Salt Lake Center
Wed 08:00:32 PM 46.0706 -108.0206 235° Southwest 175 201 6,700 -780 Descending Salt Lake Center
Wed 08:01:33 PM 46.0414 -108.0783 234° Southwest 180 207 6,000 -341 Descending Salt Lake Center
Wed 08:02:35 PM 46.0133 -108.1344 234° Southwest 165 190 6,000  Level Salt Lake Center
Wed 08:03:37 PM 45.9856 -108.1900 234° Southwest 170 196 6,000  Level Salt Lake Center
Wed 08:04:38 PM 45.9583 -108.2442 234° Southwest 170 196 6,000  Level Salt Lake Center
Wed 08:05:40 PM 45.9283 -108.3042 234° Southwest 173 199 6,000  Level Salt Lake Center
Wed 08:06:42 PM 45.9003 -108.3600 234° Southwest 173 199 6,000  Level Salt Lake Center
Wed 08:07:43 PM 45.8681 -108.4178 231° Southwest 173 199 6,000 -341 Level Salt Lake Center
Wed 08:08:45 PM 45.8247 -108.4553 211° Southwest 185 213 5,300 -677 Descending Salt Lake Center
Wed 08:09:47 PM 45.7908 -108.4728 200° South 132 152 4,600 -878 Descending Salt Lake Center
Wed 08:10:48 PM 45.8014 -108.5139 290° West 105 121 3,500 -1,082 Descending Salt Lake Center
Wed 08:12:00 PM 45.8000 -108.5333 234° Southwest  Level FlightAware Approximate

Login

Don't have an account? Register now (free) for customized features, flight alerts, and more!